Time;durP1;ratioP1;P1;durP2;ratioP2;P2;SDS_P1;SDS_P2;PMS_P1;PMS_P2;Temp;Humidity;BMP_temperature;BMP_pressure;BME280_temperature;BME280_humidity;BME280_pressure;Samples;Min_cycle;Max_cycle;Signal;HPM_P1;HPM_P2
2022/08/17 00:01:00;;;;;;;5.93;5.53;;;;;;;;;;4990720;28;20661;-53
2022/08/17 00:03:28;;;;;;;6.57;5.97;;;;;;;;;;4979290;28;20540;-53
2022/08/17 00:05:54;;;;;;;5.93;5.47;;;;;;;;;;4987803;28;20689;-53
2022/08/17 00:08:22;;;;;;;6.67;6.07;;;;;;;;;;4982057;28;21977;-53
2022/08/17 00:10:49;;;;;;;5.88;5.40;;;;;;;;;;4980136;28;20265;-54
2022/08/17 00:13:17;;;;;;;7.13;6.50;;;;;;;;;;4985244;28;20193;-53
2022/08/17 00:15:43;;;;;;;6.37;5.87;;;;;;;;;;4986939;28;20238;-53
2022/08/17 00:18:10;;;;;;;5.67;5.17;;;;;;;;;;4993253;28;20198;-53
2022/08/17 00:20:36;;;;;;;6.00;5.57;;;;;;;;;;4986311;28;20210;-53
2022/08/17 00:23:07;;;;;;;5.77;5.33;;;;;;;;;;4984251;28;20189;-53
2022/08/17 00:25:33;;;;;;;6.30;5.80;;;;;;;;;;4986211;28;20769;-53
2022/08/17 00:27:59;;;;;;;8.30;6.57;;;;;;;;;;4986368;28;20258;-53
2022/08/17 00:30:25;;;;;;;5.50;5.10;;;;;;;;;;4986562;28;20222;-54
2022/08/17 00:32:51;;;;;;;6.57;6.07;;;;;;;;;;4988380;28;20718;-54
2022/08/17 00:35:22;;;;;;;6.23;5.63;;;;;;;;;;4986667;28;20185;-53
2022/08/17 00:37:48;;;;;;;6.57;6.07;;;;;;;;;;4990772;28;20854;-54
2022/08/17 00:40:14;;;;;;;6.37;5.47;;;;;;;;;;4989843;28;20217;-53
2022/08/17 00:42:40;;;;;;;6.03;5.53;;;;;;;;;;4992134;28;20209;-54
2022/08/17 00:45:08;;;;;;;6.53;5.97;;;;;;;;;;4987552;28;20216;-53
2022/08/17 00:47:34;;;;;;;5.80;5.40;;;;;;;;;;4991515;28;20205;-53
2022/08/17 00:50:00;;;;;;;6.40;5.90;;;;;;;;;;4990045;28;20668;-53
2022/08/17 00:52:32;;;;;;;6.30;5.80;;;;;;;;;;5000509;28;20553;-53
2022/08/17 00:54:58;;;;;;;6.03;5.53;;;;;;;;;;4989803;28;20205;-53
2022/08/17 00:57:27;;;;;;;6.13;5.53;;;;;;;;;;4992619;28;20187;-54
2022/08/17 00:59:56;;;;;;;6.20;5.70;;;;;;;;;;4989623;28;20665;-54
2022/08/17 01:02:23;;;;;;;6.60;6.10;;;;;;;;;;4990863;28;20632;-54
2022/08/17 01:04:50;;;;;;;5.87;5.47;;;;;;;;;;4989742;28;20679;-54
2022/08/17 01:07:17;;;;;;;6.10;5.70;;;;;;;;;;4990837;28;20692;-54
2022/08/17 01:09:43;;;;;;;6.00;5.60;;;;;;;;;;4987821;28;20591;-54
2022/08/17 01:12:11;;;;;;;5.90;5.40;;;;;;;;;;4993090;28;20175;-53
2022/08/17 01:14:38;;;;;;;6.67;6.17;;;;;;;;;;4984241;28;20182;-53
2022/08/17 01:17:05;;;;;;;6.17;5.73;;;;;;;;;;4981249;28;20186;-53
2022/08/17 01:19:34;;;;;;;6.03;5.63;;;;;;;;;;4989701;28;20546;-53
2022/08/17 01:22:06;;;;;;;6.50;6.03;;;;;;;;;;4991350;28;20183;-53
2022/08/17 01:24:32;;;;;;;6.07;5.57;;;;;;;;;;4988177;28;20180;-53
2022/08/17 01:26:59;;;;;;;6.87;6.37;;;;;;;;;;4997099;28;20252;-53
2022/08/17 01:29:25;;;;;;;5.97;5.47;;;;;;;;;;4987762;28;20228;-53
2022/08/17 01:31:56;;;;;;;5.97;5.57;;;;;;;;;;4991272;28;20183;-52
2022/08/17 01:34:23;;;;;;;6.17;5.77;;;;;;;;;;4988476;28;20223;-53
2022/08/17 01:36:50;;;;;;;7.07;6.40;;;;;;;;;;4988043;28;20225;-53
2022/08/17 01:39:29;;;;;;;6.20;5.80;;;;;;;;;;4988402;28;20183;-52
2022/08/17 01:42:01;;;;;;;6.67;6.07;;;;;;;;;;4985883;28;20234;-52
2022/08/17 01:44:27;;;;;;;6.40;5.90;;;;;;;;;;4971863;28;20180;-53
2022/08/17 01:46:53;;;;;;;6.40;5.90;;;;;;;;;;4988525;28;20183;-52
2022/08/17 01:49:19;;;;;;;6.77;6.27;;;;;;;;;;4989038;28;20175;-52
2022/08/17 01:51:45;;;;;;;6.77;6.17;;;;;;;;;;4974848;28;20269;-53
2022/08/17 01:54:13;;;;;;;6.43;6.03;;;;;;;;;;4981176;28;20179;-53
2022/08/17 01:56:40;;;;;;;6.60;6.10;;;;;;;;;;4986957;28;20179;-53
2022/08/17 01:59:06;;;;;;;6.73;6.23;;;;;;;;;;4985088;28;20979;-53
2022/08/17 02:01:33;;;;;;;6.10;5.70;;;;;;;;;;4980184;28;20678;-53
2022/08/17 02:04:00;;;;;;;6.93;6.10;;;;;;;;;;4989311;28;20183;-53
2022/08/17 02:06:26;;;;;;;6.37;5.90;;;;;;;;;;4996318;28;20241;-53
2022/08/17 02:08:53;;;;;;;6.50;6.00;;;;;;;;;;4982014;28;20279;-52
2022/08/17 02:11:20;;;;;;;6.17;5.57;;;;;;;;;;4985047;28;20245;-53
2022/08/17 02:13:47;;;;;;;6.20;5.70;;;;;;;;;;4988128;28;20728;-52
2022/08/17 02:16:13;;;;;;;6.50;6.10;;;;;;;;;;4988135;28;20667;-53
2022/08/17 02:18:39;;;;;;;5.93;5.53;;;;;;;;;;4985478;28;20194;-53
2022/08/17 02:21:06;;;;;;;6.60;6.10;;;;;;;;;;4986062;28;20210;-53
2022/08/17 02:23:34;;;;;;;7.20;6.60;;;;;;;;;;4983991;28;20199;-53
2022/08/17 02:26:00;;;;;;;6.43;6.00;;;;;;;;;;4989214;28;20642;-53
2022/08/17 02:28:27;;;;;;;5.93;5.47;;;;;;;;;;4988621;28;20183;-53
2022/08/17 02:30:54;;;;;;;6.70;6.20;;;;;;;;;;4988114;28;20184;-58
2022/08/17 02:33:20;;;;;;;6.43;5.83;;;;;;;;;;4983969;28;20238;-52
2022/08/17 02:35:46;;;;;;;6.37;5.97;;;;;;;;;;4986361;28;20194;-52
2022/08/17 02:38:12;;;;;;;5.90;5.50;;;;;;;;;;4986559;28;20692;-52
2022/08/17 02:40:39;;;;;;;6.50;6.00;;;;;;;;;;4987143;28;20199;-52
2022/08/17 02:43:05;;;;;;;7.00;6.40;;;;;;;;;;4986592;28;20229;-52
2022/08/17 02:45:31;;;;;;;6.47;5.97;;;;;;;;;;4970742;28;20185;-52
2022/08/17 02:47:57;;;;;;;6.57;6.07;;;;;;;;;;4988680;28;20230;-53
2022/08/17 02:50:24;;;;;;;6.40;5.90;;;;;;;;;;4987055;28;20237;-50
2022/08/17 02:52:51;;;;;;;6.43;5.97;;;;;;;;;;4986832;28;20670;-50
2022/08/17 02:55:25;;;;;;;6.97;6.40;;;;;;;;;;4987781;28;20191;-53
2022/08/17 02:57:52;;;;;;;6.33;5.93;;;;;;;;;;4989563;28;20851;-50
2022/08/17 03:00:20;;;;;;;6.67;6.17;;;;;;;;;;4986539;28;20210;-51
2022/08/17 03:02:46;;;;;;;6.70;6.20;;;;;;;;;;4987106;28;20179;-50
2022/08/17 03:05:15;;;;;;;6.80;6.30;;;;;;;;;;4989302;28;20235;-52
2022/08/17 03:07:41;;;;;;;6.80;6.30;;;;;;;;;;4988240;28;20192;-51
2022/08/17 03:10:09;;;;;;;6.70;6.20;;;;;;;;;;4987441;28;20191;-51
2022/08/17 03:12:37;;;;;;;6.40;5.90;;;;;;;;;;4989379;28;20711;-51
2022/08/17 03:15:24;;;;;;;6.20;5.67;;;;;;;;;;4986965;28;20190;-52
2022/08/17 03:17:51;;;;;;;6.63;6.13;;;;;;;;;;4983633;28;20713;-51
2022/08/17 03:20:18;;;;;;;6.67;6.10;;;;;;;;;;4986422;28;20396;-51
2022/08/17 03:22:48;;;;;;;6.97;6.37;;;;;;;;;;4987486;28;20192;-52
2022/08/17 03:25:15;;;;;;;7.10;6.60;;;;;;;;;;4986165;28;20201;-51
2022/08/17 03:27:42;;;;;;;5.97;5.57;;;;;;;;;;4989244;28;20633;-52
2022/08/17 03:30:09;;;;;;;6.13;5.73;;;;;;;;;;4987363;28;20190;-53
2022/08/17 03:32:53;;;;;;;6.60;6.03;;;;;;;;;;4986345;28;20177;-51
2022/08/17 03:35:21;;;;;;;6.63;6.13;;;;;;;;;;4975796;28;20179;-51
2022/08/17 03:37:47;;;;;;;7.00;6.40;;;;;;;;;;4972546;28;20245;-52
2022/08/17 03:40:13;;;;;;;10.73;9.93;;;;;;;;;;4968226;28;20207;-52
2022/08/17 03:42:39;;;;;;;7.27;6.77;;;;;;;;;;4950041;28;20194;-52
2022/08/17 03:45:07;;;;;;;6.93;6.33;;;;;;;;;;4969409;28;20241;-52
2022/08/17 03:58:38;;;;;;;7.80;7.20;;;;;;;;;;4964542;28;20266;-52
2022/08/17 04:01:07;;;;;;;7.13;6.43;;;;;;;;;;4968117;28;20717;-54
2022/08/17 04:03:33;;;;;;;6.00;5.50;;;;;;;;;;4965422;28;20184;-53
2022/08/17 04:06:01;;;;;;;6.20;5.77;;;;;;;;;;4967688;28;20202;-52
2022/08/17 04:08:27;;;;;;;6.80;6.30;;;;;;;;;;4967258;28;20194;-52
2022/08/17 04:10:54;;;;;;;7.40;6.73;;;;;;;;;;4970719;28;21206;-53
2022/08/17 04:13:20;;;;;;;7.33;6.83;;;;;;;;;;4967673;28;20205;-52
2022/08/17 04:15:48;;;;;;;7.30;6.73;;;;;;;;;;4968960;28;20672;-53
2022/08/17 04:18:14;;;;;;;6.47;6.07;;;;;;;;;;4966463;28;20196;-52
2022/08/17 04:20:40;;;;;;;6.77;6.30;;;;;;;;;;4948797;28;20955;-53
2022/08/17 04:23:08;;;;;;;8.90;8.27;;;;;;;;;;4951764;28;20228;-51
2022/08/17 04:25:35;;;;;;;6.83;6.33;;;;;;;;;;4954703;28;20188;-54
2022/08/17 04:28:02;;;;;;;6.80;6.30;;;;;;;;;;4964717;28;20716;-52
2022/08/17 04:30:30;;;;;;;7.10;6.60;;;;;;;;;;4965937;28;20188;-53
2022/08/17 04:32:57;;;;;;;6.77;6.27;;;;;;;;;;4964083;28;20199;-52
2022/08/17 04:35:24;;;;;;;6.93;6.43;;;;;;;;;;4985705;28;20577;-51
2022/08/17 04:37:51;;;;;;;7.33;6.73;;;;;;;;;;4986428;28;20601;-51
2022/08/17 04:43:13;;;;;;;6.93;6.37;;;;;;;;;;4977724;28;20191;-52
2022/08/17 04:45:44;;;;;;;7.40;6.70;;;;;;;;;;4981677;28;20197;-51
2022/08/17 04:48:10;;;;;;;7.33;6.73;;;;;;;;;;4983042;28;20187;-50
2022/08/17 04:50:39;;;;;;;6.60;6.10;;;;;;;;;;4981775;28;20187;-51
2022/08/17 04:53:05;;;;;;;6.47;5.97;;;;;;;;;;4983791;28;20583;-51
2022/08/17 04:55:31;;;;;;;6.63;6.03;;;;;;;;;;4982749;28;20190;-51
2022/08/17 04:57:57;;;;;;;6.40;5.83;;;;;;;;;;4986465;28;21375;-54
2022/08/17 05:00:24;;;;;;;8.73;8.03;;;;;;;;;;4984298;28;20211;-51
2022/08/17 05:02:54;;;;;;;7.20;6.60;;;;;;;;;;4981824;28;20677;-50
2022/08/17 05:05:27;;;;;;;6.90;6.40;;;;;;;;;;4986917;28;20211;-49
2022/08/17 05:07:55;;;;;;;6.73;6.23;;;;;;;;;;4990139;28;20618;-51
2022/08/17 05:10:21;;;;;;;7.00;6.40;;;;;;;;;;4987428;28;20657;-52
2022/08/17 05:12:47;;;;;;;6.87;6.33;;;;;;;;;;4986286;28;20184;-53
2022/08/17 05:15:15;;;;;;;6.50;5.97;;;;;;;;;;4984294;28;20265;-50
2022/08/17 05:17:42;;;;;;;6.97;6.47;;;;;;;;;;4987485;28;20187;-49
2022/08/17 05:20:08;;;;;;;7.37;6.77;;;;;;;;;;4982482;28;20203;-52
2022/08/17 05:22:35;;;;;;;6.77;6.23;;;;;;;;;;4987441;28;20258;-53
2022/08/17 05:25:01;;;;;;;6.87;6.27;;;;;;;;;;4998579;28;20183;-51
2022/08/17 05:27:27;;;;;;;9.00;8.10;;;;;;;;;;4982992;28;20180;-54
2022/08/17 05:29:53;;;;;;;8.93;8.13;;;;;;;;;;4982097;28;20275;-53
2022/08/17 05:32:21;;;;;;;9.53;8.60;;;;;;;;;;4975741;28;20605;-54
2022/08/17 05:34:47;;;;;;;9.30;8.40;;;;;;;;;;4987737;28;20340;-53
2022/08/17 05:37:13;;;;;;;9.30;8.40;;;;;;;;;;4993370;28;20579;-54
2022/08/17 05:39:40;;;;;;;9.90;9.10;;;;;;;;;;4994935;28;20985;-55
2022/08/17 05:42:06;;;;;;;9.00;8.20;;;;;;;;;;4990231;28;20676;-54
2022/08/17 05:44:32;;;;;;;10.10;8.60;;;;;;;;;;4990246;28;20181;-53
2022/08/17 05:46:59;;;;;;;9.27;8.40;;;;;;;;;;4995429;28;20546;-54
2022/08/17 05:49:26;;;;;;;9.30;8.70;;;;;;;;;;4989660;28;20191;-54
2022/08/17 05:52:12;;;;;;;9.23;8.33;;;;;;;;;;4973203;28;20716;-53
2022/08/17 05:54:59;;;;;;;9.00;8.10;;;;;;;;;;4993221;28;20637;-53
2022/08/17 05:57:50;;;;;;;9.30;8.40;;;;;;;;;;4991497;28;20198;-55
2022/08/17 06:00:16;;;;;;;9.67;8.97;;;;;;;;;;4985799;28;20242;-54
2022/08/17 06:02:57;;;;;;;10.47;9.27;;;;;;;;;;4983031;28;20237;-55
2022/08/17 06:05:26;;;;;;;9.87;8.60;;;;;;;;;;4999021;28;20280;-54
2022/08/17 06:07:55;;;;;;;9.30;8.50;;;;;;;;;;4991847;28;20218;-53
2022/08/17 06:10:25;;;;;;;8.50;7.70;;;;;;;;;;4955402;28;20196;-54
2022/08/17 06:12:51;;;;;;;9.10;7.53;;;;;;;;;;4989957;28;20194;-53
2022/08/17 06:15:18;;;;;;;9.97;6.23;;;;;;;;;;4969068;28;20186;-54
2022/08/17 06:17:45;;;;;;;5.90;5.30;;;;;;;;;;4980829;28;20727;-54
2022/08/17 06:20:13;;;;;;;6.33;5.03;;;;;;;;;;4982924;28;20216;-55
2022/08/17 06:23:00;;;;;;;7.40;6.03;;;;;;;;;;4983137;28;20655;-54
2022/08/17 06:25:31;;;;;;;8.67;5.73;;;;;;;;;;4973154;28;20616;-56
2022/08/17 06:28:13;;;;;;;6.77;6.27;;;;;;;;;;4958931;28;20190;-55
2022/08/17 06:30:49;;;;;;;6.47;5.70;;;;;;;;;;4999361;28;20269;-55
2022/08/17 06:33:20;;;;;;;7.50;5.57;;;;;;;;;;4986202;28;20219;-56
2022/08/17 06:36:01;;;;;;;9.97;5.83;;;;;;;;;;4979121;28;20251;-54
2022/08/17 06:38:35;;;;;;;6.87;5.40;;;;;;;;;;4993098;28;20182;-54
2022/08/17 06:41:08;;;;;;;5.97;5.37;;;;;;;;;;4984039;28;20241;-54
2022/08/17 06:43:49;;;;;;;8.50;5.30;;;;;;;;;;4989311;28;20672;-54
2022/08/17 06:46:24;;;;;;;6.03;5.53;;;;;;;;;;4988034;28;20664;-56
2022/08/17 06:49:08;;;;;;;5.73;4.53;;;;;;;;;;4978629;28;20174;-55
2022/08/17 06:51:38;;;;;;;5.57;4.90;;;;;;;;;;5003710;28;20195;-55
2022/08/17 06:54:07;;;;;;;12.73;5.87;;;;;;;;;;5000964;28;20536;-55
2022/08/17 06:56:33;;;;;;;8.77;5.57;;;;;;;;;;4989950;28;20256;-54
2022/08/17 06:59:00;;;;;;;6.77;5.40;;;;;;;;;;4970792;28;20562;-55
2022/08/17 07:01:32;;;;;;;6.60;5.70;;;;;;;;;;4985235;28;20632;-55
2022/08/17 07:04:08;;;;;;;7.13;6.03;;;;;;;;;;4985622;28;20191;-55
2022/08/17 07:06:38;;;;;;;6.90;5.93;;;;;;;;;;4987733;28;20210;-55
2022/08/17 07:09:17;;;;;;;6.87;6.07;;;;;;;;;;4972391;28;20166;-54
2022/08/17 07:11:49;;;;;;;5.87;5.37;;;;;;;;;;4972684;28;20176;-55
2022/08/17 07:14:35;;;;;;;8.43;5.50;;;;;;;;;;4988155;28;20160;-54
2022/08/17 07:17:03;;;;;;;7.57;5.97;;;;;;;;;;4989211;28;20183;-54
2022/08/17 07:19:35;;;;;;;9.83;7.07;;;;;;;;;;4989760;28;20171;-53
2022/08/17 07:22:09;;;;;;;8.90;7.97;;;;;;;;;;4971111;28;20179;-54
2022/08/17 07:24:42;;;;;;;8.43;6.90;;;;;;;;;;4989511;28;20253;-53
2022/08/17 07:27:08;;;;;;;10.07;7.47;;;;;;;;;;4971477;28;20180;-54
2022/08/17 07:29:39;;;;;;;8.60;7.00;;;;;;;;;;4988773;28;20172;-55
2022/08/17 07:32:05;;;;;;;8.10;6.83;;;;;;;;;;4970533;28;20195;-54
2022/08/17 07:34:51;;;;;;;9.93;7.80;;;;;;;;;;4990253;28;20695;-54
2022/08/17 07:37:19;;;;;;;8.03;7.23;;;;;;;;;;4989027;28;20184;-53
2022/08/17 07:39:45;;;;;;;9.40;8.53;;;;;;;;;;4989316;28;20190;-53
2022/08/17 07:42:11;;;;;;;8.57;7.73;;;;;;;;;;4989011;28;20650;-53
2022/08/17 07:44:49;;;;;;;10.50;8.13;;;;;;;;;;4999536;28;20588;-54
2022/08/17 07:50:02;;;;;;;11.17;10.07;;;;;;;;;;4988858;28;20436;-54
2022/08/17 07:52:28;;;;;;;12.70;8.93;;;;;;;;;;4989017;28;20245;-54
2022/08/17 07:54:54;;;;;;;11.57;10.57;;;;;;;;;;4989224;28;20168;-54
2022/08/17 07:57:22;;;;;;;11.07;9.67;;;;;;;;;;4988363;28;20183;-54
2022/08/17 08:00:01;;;;;;;10.20;9.23;;;;;;;;;;4988859;28;20179;-54
2022/08/17 08:02:30;;;;;;;11.30;10.20;;;;;;;;;;4988816;28;20635;-54
2022/08/17 08:05:18;;;;;;;12.20;10.40;;;;;;;;;;4989595;28;20200;-56
2022/08/17 08:07:49;;;;;;;11.83;10.70;;;;;;;;;;4988792;28;20634;-54
2022/08/17 08:10:26;;;;;;;11.93;10.83;;;;;;;;;;4989057;28;20205;-54
2022/08/17 08:13:16;;;;;;;13.77;11.20;;;;;;;;;;4988666;28;20668;-55
2022/08/17 08:15:50;;;;;;;12.73;11.30;;;;;;;;;;4988718;28;20162;-54
2022/08/17 08:18:26;;;;;;;14.67;12.87;;;;;;;;;;4996968;28;20190;-53
2022/08/17 08:21:00;;;;;;;13.43;11.73;;;;;;;;;;4992112;28;20711;-54
2022/08/17 08:23:45;;;;;;;13.80;11.57;;;;;;;;;;4989030;28;20602;-53
2022/08/17 08:26:25;;;;;;;15.40;13.47;;;;;;;;;;4988793;28;20171;-53
2022/08/17 08:29:07;;;;;;;22.37;13.40;;;;;;;;;;4988343;28;20187;-54
2022/08/17 08:31:52;;;;;;;13.63;12.33;;;;;;;;;;4988635;28;20176;-53
2022/08/17 08:34:18;;;;;;;17.10;12.80;;;;;;;;;;4989390;28;20315;-54
2022/08/17 08:36:58;;;;;;;17.90;13.77;;;;;;;;;;5004372;28;20528;-53
2022/08/17 08:39:30;;;;;;;13.07;11.87;;;;;;;;;;4988575;28;20172;-53
2022/08/17 08:41:57;;;;;;;14.00;10.57;;;;;;;;;;4988019;28;20234;-54
2022/08/17 08:44:23;;;;;;;19.23;11.40;;;;;;;;;;4987810;28;20171;-53
2022/08/17 08:46:49;;;;;;;15.00;12.67;;;;;;;;;;4988429;28;20171;-54
2022/08/17 08:49:34;;;;;;;15.57;12.93;;;;;;;;;;4988646;28;20634;-54
2022/08/17 08:52:02;;;;;;;16.17;12.73;;;;;;;;;;4989017;28;20545;-55
2022/08/17 08:54:35;;;;;;;13.23;11.97;;;;;;;;;;4988312;28;20615;-55
2022/08/17 08:57:20;;;;;;;14.97;13.47;;;;;;;;;;4970757;28;20240;-55
2022/08/17 09:00:05;;;;;;;14.80;13.40;;;;;;;;;;4992276;28;20536;-55
2022/08/17 09:02:50;;;;;;;14.77;13.33;;;;;;;;;;4992150;28;20225;-55
2022/08/17 09:05:19;;;;;;;15.17;13.67;;;;;;;;;;4991971;28;20697;-54
2022/08/17 09:07:56;;;;;;;14.50;13.10;;;;;;;;;;4974459;28;20180;-54
2022/08/17 09:10:26;;;;;;;17.53;13.37;;;;;;;;;;4991876;28;20179;-54
2022/08/17 09:12:52;;;;;;;17.47;13.17;;;;;;;;;;4991971;28;20515;-53
2022/08/17 09:15:38;;;;;;;14.77;13.37;;;;;;;;;;4974230;28;20168;-55
2022/08/17 09:18:09;;;;;;;15.47;13.87;;;;;;;;;;4991767;28;20267;-54
2022/08/17 09:20:45;;;;;;;15.60;13.97;;;;;;;;;;4991570;28;20263;-54
2022/08/17 09:23:33;;;;;;;15.57;13.93;;;;;;;;;;4991881;28;20199;-54
2022/08/17 09:26:05;;;;;;;15.50;14.10;;;;;;;;;;4997421;28;20687;-55
2022/08/17 09:28:38;;;;;;;16.60;13.93;;;;;;;;;;4993952;28;20630;-54
2022/08/17 09:31:11;;;;;;;16.73;15.20;;;;;;;;;;4974369;28;20218;-55
2022/08/17 09:33:47;;;;;;;16.10;14.70;;;;;;;;;;4991963;28;20194;-55
2022/08/17 09:36:23;;;;;;;16.23;14.40;;;;;;;;;;4991580;28;20709;-54
2022/08/17 09:38:59;;;;;;;16.33;14.27;;;;;;;;;;4991881;28;20652;-54
2022/08/17 09:41:32;;;;;;;18.57;16.93;;;;;;;;;;4990945;28;20631;-55
2022/08/17 09:44:04;;;;;;;17.00;15.23;;;;;;;;;;4999317;28;20186;-54
2022/08/17 09:46:36;;;;;;;19.73;17.70;;;;;;;;;;5009830;28;20609;-55
2022/08/17 09:49:02;;;;;;;17.37;15.37;;;;;;;;;;4991885;28;20167;-55
2022/08/17 09:51:38;;;;;;;22.00;17.87;;;;;;;;;;4990994;28;20199;-57
2022/08/17 09:54:11;;;;;;;17.83;15.87;;;;;;;;;;4992026;28;20179;-55
2022/08/17 09:56:40;;;;;;;20.00;18.10;;;;;;;;;;4973661;28;20168;-56
2022/08/17 09:59:06;;;;;;;19.03;17.10;;;;;;;;;;4990483;28;20729;-55
2022/08/17 10:01:36;;;;;;;19.20;17.53;;;;;;;;;;4991306;28;20250;-55
2022/08/17 10:04:09;;;;;;;19.13;17.10;;;;;;;;;;4991397;28;20207;-54
2022/08/17 10:06:43;;;;;;;16.47;15.00;;;;;;;;;;4990543;28;20670;-53
2022/08/17 10:09:25;;;;;;;17.77;16.27;;;;;;;;;;4972866;28;20202;-54
2022/08/17 10:12:18;;;;;;;19.83;17.83;;;;;;;;;;4990320;28;20207;-53
2022/08/17 10:15:06;;;;;;;17.13;15.63;;;;;;;;;;4991143;28;20237;-54
2022/08/17 10:17:39;;;;;;;18.47;16.67;;;;;;;;;;4991645;28;20518;-54
2022/08/17 10:20:11;;;;;;;20.30;18.07;;;;;;;;;;4990526;28;20679;-54
2022/08/17 10:28:19;;;;;;;20.40;18.63;;;;;;;;;;4990041;28;20303;-55
2022/08/17 10:30:47;;;;;;;20.90;18.77;;;;;;;;;;4972789;28;20190;-54
2022/08/17 10:33:26;;;;;;;21.60;19.50;;;;;;;;;;4989873;28;20179;-55
2022/08/17 10:35:55;;;;;;;20.63;18.77;;;;;;;;;;4970868;28;20752;-54
2022/08/17 10:38:22;;;;;;;20.53;18.47;;;;;;;;;;4986566;28;20273;-54
2022/08/17 10:40:48;;;;;;;20.23;18.23;;;;;;;;;;4990422;28;20547;-55
2022/08/17 10:43:37;;;;;;;20.73;18.63;;;;;;;;;;4990089;28;20638;-55
2022/08/17 10:46:13;;;;;;;20.43;18.40;;;;;;;;;;4990269;28;20527;-55
2022/08/17 10:48:41;;;;;;;20.20;18.33;;;;;;;;;;4990536;28;20176;-55
2022/08/17 10:51:12;;;;;;;20.60;18.70;;;;;;;;;;4980044;28;20192;-54
2022/08/17 10:53:39;;;;;;;19.93;18.10;;;;;;;;;;4991529;28;20200;-56
2022/08/17 10:56:17;;;;;;;20.70;18.90;;;;;;;;;;4990149;28;20651;-55
2022/08/17 10:59:01;;;;;;;18.67;16.97;;;;;;;;;;4989383;28;20209;-54
2022/08/17 11:01:34;;;;;;;22.07;19.93;;;;;;;;;;4989415;28;20195;-54
2022/08/17 11:04:02;;;;;;;21.60;19.63;;;;;;;;;;4990210;28;20641;-55
2022/08/17 11:06:41;;;;;;;19.87;18.07;;;;;;;;;;4989574;28;20254;-54
2022/08/17 11:09:07;;;;;;;20.17;18.17;;;;;;;;;;4997316;28;20502;-55
2022/08/17 11:11:37;;;;;;;20.83;18.83;;;;;;;;;;4989882;28;20238;-54
2022/08/17 11:14:20;;;;;;;23.73;21.57;;;;;;;;;;4989431;28;20168;-54
2022/08/17 11:17:06;;;;;;;22.57;20.37;;;;;;;;;;4972288;28;20193;-55
2022/08/17 11:19:51;;;;;;;26.13;23.80;;;;;;;;;;4989494;28;20195;-54
2022/08/17 11:22:29;;;;;;;23.00;20.80;;;;;;;;;;4988909;28;20237;-54
2022/08/17 11:24:57;;;;;;;26.73;24.33;;;;;;;;;;4995057;28;20411;-54
2022/08/17 11:27:28;;;;;;;24.73;22.63;;;;;;;;;;5001142;28;20414;-54
2022/08/17 11:29:58;;;;;;;24.97;22.77;;;;;;;;;;4990041;28;20168;-54
2022/08/17 11:32:36;;;;;;;26.60;24.30;;;;;;;;;;4989884;28;20622;-53
2022/08/17 11:35:05;;;;;;;26.10;23.30;;;;;;;;;;4972701;28;20306;-54
2022/08/17 11:37:40;;;;;;;25.47;23.07;;;;;;;;;;4971873;28;20712;-53
2022/08/17 11:40:09;;;;;;;27.43;24.83;;;;;;;;;;4989590;28;20230;-54
2022/08/17 11:42:54;;;;;;;26.47;24.10;;;;;;;;;;4990208;28;20211;-54
2022/08/17 11:45:49;;;;;;;28.37;25.80;;;;;;;;;;4987024;28;20679;-54
2022/08/17 11:51:35;;;;;;;28.70;26.10;;;;;;;;;;4985333;28;20601;-54
2022/08/17 11:54:04;;;;;;;30.07;27.37;;;;;;;;;;4988531;28;20266;-57
2022/08/17 11:56:41;;;;;;;32.17;29.37;;;;;;;;;;4988276;28;20222;-54
2022/08/17 11:59:26;;;;;;;33.90;30.50;;;;;;;;;;4990011;28;20182;-53
2022/08/17 12:01:55;;;;;;;32.73;29.63;;;;;;;;;;4995672;28;20285;-54
2022/08/17 12:04:21;;;;;;;33.50;30.50;;;;;;;;;;4971141;28;20190;-54
2022/08/17 12:06:55;;;;;;;32.40;29.20;;;;;;;;;;4988331;28;20179;-53
2022/08/17 12:09:23;;;;;;;32.63;29.53;;;;;;;;;;4989640;28;20177;-54
2022/08/17 12:12:03;;;;;;;32.10;29.27;;;;;;;;;;4999605;28;20167;-54
2022/08/17 12:14:31;;;;;;;34.83;31.33;;;;;;;;;;4971664;28;20200;-54
2022/08/17 12:17:22;;;;;;;34.03;31.03;;;;;;;;;;4988875;28;20221;-53
2022/08/17 12:19:48;;;;;;;36.37;32.13;;;;;;;;;;4989510;28;20152;-56
2022/08/17 12:22:18;;;;;;;36.67;33.57;;;;;;;;;;4988192;28;20183;-54
2022/08/17 12:24:49;;;;;;;33.87;30.93;;;;;;;;;;4977579;28;20176;-54
2022/08/17 12:27:30;;;;;;;35.97;32.97;;;;;;;;;;4989508;28;20178;-54
2022/08/17 12:29:57;;;;;;;35.40;32.23;;;;;;;;;;4990890;28;20195;-55
2022/08/17 12:32:25;;;;;;;33.40;30.60;;;;;;;;;;4990125;28;20566;-55
2022/08/17 12:34:52;;;;;;;34.50;31.07;;;;;;;;;;4992907;28;20231;-55
2022/08/17 12:37:20;;;;;;;35.00;31.63;;;;;;;;;;4991404;28;20257;-54
2022/08/17 12:39:58;;;;;;;34.57;31.47;;;;;;;;;;4993003;28;20646;-56
2022/08/17 12:42:36;;;;;;;36.67;33.37;;;;;;;;;;4992308;28;20180;-54
2022/08/17 12:45:07;;;;;;;34.53;31.33;;;;;;;;;;4997854;28;20464;-55
2022/08/17 12:47:36;;;;;;;37.83;34.43;;;;;;;;;;4993563;28;20179;-55
2022/08/17 12:50:08;;;;;;;36.70;33.30;;;;;;;;;;5002489;28;20209;-54
2022/08/17 12:52:36;;;;;;;36.93;33.37;;;;;;;;;;4992823;28;20685;-54
2022/08/17 12:55:05;;;;;;;37.47;33.87;;;;;;;;;;4999359;28;20708;-54
2022/08/17 12:57:38;;;;;;;36.13;32.83;;;;;;;;;;4991062;28;20262;-53
2022/08/17 13:00:09;;;;;;;33.23;30.23;;;;;;;;;;4991234;28;20226;-54
2022/08/17 13:02:40;;;;;;;32.67;29.53;;;;;;;;;;4992239;28;20182;-54
2022/08/17 13:05:16;;;;;;;31.27;28.13;;;;;;;;;;4985131;28;20558;-55
2022/08/17 13:07:42;;;;;;;38.43;35.23;;;;;;;;;;4967858;28;20220;-56
2022/08/17 13:10:15;;;;;;;36.90;33.70;;;;;;;;;;4984364;28;20662;-55
2022/08/17 13:12:41;;;;;;;39.23;35.40;;;;;;;;;;4990321;28;20563;-56
2022/08/17 13:15:08;;;;;;;35.97;32.60;;;;;;;;;;4971182;28;20211;-56
2022/08/17 13:17:35;;;;;;;37.87;34.40;;;;;;;;;;4997102;28;20185;-55
2022/08/17 13:20:03;;;;;;;38.70;34.93;;;;;;;;;;4987735;28;20295;-55
2022/08/17 13:22:31;;;;;;;35.37;31.93;;;;;;;;;;4989396;28;20180;-55
2022/08/17 13:24:59;;;;;;;37.03;33.33;;;;;;;;;;4990601;28;20184;-56
2022/08/17 13:27:27;;;;;;;35.23;32.03;;;;;;;;;;4989075;28;20207;-56
2022/08/17 13:29:56;;;;;;;35.73;32.43;;;;;;;;;;4990627;28;20187;-55
2022/08/17 13:32:34;;;;;;;38.77;35.20;;;;;;;;;;4995545;28;20168;-56
2022/08/17 13:35:05;;;;;;;37.67;34.37;;;;;;;;;;4990393;28;20626;-57
2022/08/17 13:37:35;;;;;;;38.10;34.70;;;;;;;;;;4989261;28;20185;-56
2022/08/17 13:40:09;;;;;;;34.83;31.73;;;;;;;;;;4989811;28;20186;-56
2022/08/17 13:42:42;;;;;;;38.33;34.63;;;;;;;;;;4981113;28;20630;-55
2022/08/17 13:45:27;;;;;;;39.30;35.83;;;;;;;;;;4981380;28;20184;-56
2022/08/17 13:48:13;;;;;;;36.77;33.37;;;;;;;;;;4983028;28;20202;-56
2022/08/17 13:50:41;;;;;;;34.23;31.17;;;;;;;;;;4978304;28;20183;-56
2022/08/17 13:53:19;;;;;;;38.93;35.50;;;;;;;;;;4991130;28;20191;-56
2022/08/17 13:55:55;;;;;;;40.80;37.00;;;;;;;;;;4990468;28;20702;-55
2022/08/17 13:58:32;;;;;;;40.67;36.90;;;;;;;;;;4961675;28;20195;-56
2022/08/17 14:01:00;;;;;;;41.73;38.00;;;;;;;;;;4982156;28;20668;-55
2022/08/17 14:03:26;;;;;;;42.43;38.83;;;;;;;;;;4979608;28;20226;-54
2022/08/17 14:05:52;;;;;;;44.60;40.80;;;;;;;;;;4989292;28;20256;-55
2022/08/17 14:08:19;;;;;;;43.00;39.13;;;;;;;;;;4972954;28;21056;-55
2022/08/17 14:10:51;;;;;;;42.87;38.57;;;;;;;;;;4966656;28;20244;-55
2022/08/17 14:13:17;;;;;;;39.20;35.90;;;;;;;;;;4984251;28;20676;-55
2022/08/17 14:15:44;;;;;;;40.20;36.73;;;;;;;;;;4970652;28;20914;-56
2022/08/17 14:18:10;;;;;;;39.87;36.43;;;;;;;;;;4988727;28;20169;-54
2022/08/17 14:20:38;;;;;;;39.53;35.93;;;;;;;;;;4990638;28;20214;-54
2022/08/17 14:23:04;;;;;;;40.03;36.23;;;;;;;;;;4995806;28;20255;-54
2022/08/17 14:25:31;;;;;;;36.07;32.97;;;;;;;;;;4987836;28;20286;-55
2022/08/17 14:28:06;;;;;;;40.43;37.00;;;;;;;;;;4992506;28;20179;-54
2022/08/17 14:30:34;;;;;;;37.00;33.80;;;;;;;;;;4984441;28;20189;-55
2022/08/17 14:33:01;;;;;;;38.10;34.83;;;;;;;;;;4991645;28;20202;-55
2022/08/17 14:35:28;;;;;;;37.17;33.87;;;;;;;;;;4983361;28;20290;-55
2022/08/17 14:37:54;;;;;;;39.63;36.20;;;;;;;;;;4982037;28;20186;-55
2022/08/17 14:40:23;;;;;;;38.27;34.83;;;;;;;;;;4986317;28;20376;-54
2022/08/17 14:42:49;;;;;;;37.10;33.73;;;;;;;;;;4984162;28;20322;-55
2022/08/17 14:45:16;;;;;;;37.13;34.00;;;;;;;;;;4967136;28;20173;-54
2022/08/17 14:47:42;;;;;;;38.33;34.80;;;;;;;;;;4988649;28;20645;-55
2022/08/17 14:50:10;;;;;;;35.37;32.63;;;;;;;;;;4988919;28;20639;-55
2022/08/17 14:52:39;;;;;;;35.10;31.77;;;;;;;;;;4989085;28;20207;-55
2022/08/17 14:55:06;;;;;;;34.43;31.33;;;;;;;;;;4983937;28;20186;-55
2022/08/17 14:57:32;;;;;;;35.47;32.37;;;;;;;;;;4987729;28;20196;-56
2022/08/17 14:59:58;;;;;;;31.80;28.90;;;;;;;;;;4992393;28;20635;-54
2022/08/17 15:02:29;;;;;;;35.07;32.10;;;;;;;;;;4981012;28;20186;-56
2022/08/17 15:04:58;;;;;;;39.63;36.33;;;;;;;;;;4980996;28;20211;-55
2022/08/17 15:07:24;;;;;;;40.47;36.93;;;;;;;;;;4983596;28;20188;-57
2022/08/17 15:09:50;;;;;;;36.73;33.67;;;;;;;;;;4984185;28;20307;-55
2022/08/17 15:12:19;;;;;;;40.43;36.87;;;;;;;;;;4968806;28;20228;-55
2022/08/17 15:14:45;;;;;;;37.93;34.83;;;;;;;;;;4979004;28;21485;-58
2022/08/17 15:17:12;;;;;;;38.80;35.27;;;;;;;;;;4991533;28;20785;-55